createdAt,value
2022-10-22T00:01:28.991Z,11.43
2022-10-22T00:03:56.682Z,11.43
2022-10-22T00:06:24.458Z,11.44
2022-10-22T00:08:52.679Z,11.44
2022-10-22T00:11:24.291Z,11.43
2022-10-22T00:13:51.968Z,11.44
2022-10-22T00:16:19.823Z,11.43
2022-10-22T00:18:47.539Z,11.44
2022-10-22T00:21:15.337Z,11.44
2022-10-22T00:23:46.367Z,11.46
2022-10-22T00:26:14.124Z,11.46
2022-10-22T00:28:41.833Z,11.47
2022-10-22T00:31:13.219Z,11.49
2022-10-22T00:33:41.985Z,11.50
2022-10-22T00:36:09.711Z,11.51
2022-10-22T00:38:37.464Z,11.53
2022-10-22T00:41:09.016Z,11.54
2022-10-22T00:44:00.362Z,11.56
2022-10-22T00:46:29.994Z,11.58
2022-10-22T00:49:02.786Z,11.60
2022-10-22T00:51:36.162Z,11.60
2022-10-22T00:54:10.958Z,11.61
2022-10-22T00:56:38.666Z,11.60
2022-10-22T00:59:06.524Z,11.61
2022-10-22T01:01:34.219Z,11.62
2022-10-22T01:04:01.973Z,11.62
2022-10-22T01:06:35.265Z,11.62
2022-10-22T01:09:21.514Z,11.62
2022-10-22T01:11:54.866Z,11.62
2022-10-22T01:14:40.873Z,11.62
2022-10-22T01:17:42.161Z,11.61
2022-10-22T01:20:26.114Z,11.58
2022-10-22T01:23:13.660Z,11.58
2022-10-22T01:26:00.428Z,11.57
2022-10-22T01:29:01.212Z,11.56
2022-10-22T01:31:56.720Z,11.56
2022-10-22T01:34:27.741Z,11.55
2022-10-22T01:36:58.217Z,11.55
2022-10-22T01:39:30.898Z,11.54
2022-10-22T01:41:59.816Z,11.54
2022-10-22T01:44:38.579Z,11.54
2022-10-22T01:47:44.487Z,11.53
2022-10-22T01:50:42.524Z,11.53
2022-10-22T01:53:18.812Z,11.52
2022-10-22T01:56:09.592Z,11.53
2022-10-22T01:59:10.674Z,11.53
2022-10-22T02:01:59.528Z,11.53
2022-10-22T02:04:42.970Z,11.54
2022-10-22T02:07:15.362Z,11.55
2022-10-22T02:09:48.455Z,11.56
2022-10-22T02:12:22.894Z,11.56
2022-10-22T02:14:55.547Z,11.57
2022-10-22T02:17:31.261Z,11.58
2022-10-22T02:20:10.998Z,11.58
2022-10-22T02:22:42.677Z,11.57
2022-10-22T02:25:14.754Z,11.56
2022-10-22T02:27:56.010Z,11.55
2022-10-22T02:30:24.147Z,11.54
2022-10-22T02:33:12.247Z,11.53
2022-10-22T02:35:45.079Z,11.53
2022-10-22T02:38:17.400Z,11.52
2022-10-22T02:40:48.495Z,11.51
2022-10-22T02:43:18.886Z,11.51
2022-10-22T02:45:49.070Z,11.51
2022-10-22T02:50:52.328Z,11.48
2022-10-22T02:53:24.036Z,11.47
2022-10-22T02:55:51.750Z,11.45
2022-10-22T02:58:19.446Z,11.45
2022-10-22T03:00:51.646Z,11.44
2022-10-22T03:03:19.353Z,11.42
2022-10-22T03:05:46.996Z,11.40
2022-10-22T03:08:14.695Z,11.37
2022-10-22T03:10:42.376Z,11.33
2022-10-22T03:13:10.074Z,11.30
2022-10-22T03:15:37.803Z,11.28
2022-10-22T03:18:09.674Z,11.26
2022-10-22T03:20:37.509Z,11.23
2022-10-22T03:23:05.499Z,11.21
2022-10-22T03:25:36.101Z,11.19
2022-10-22T03:28:09.238Z,11.17
2022-10-22T03:30:37.120Z,11.14
2022-10-22T03:33:04.839Z,11.12
2022-10-22T03:35:41.136Z,11.10
2022-10-22T03:38:09.281Z,11.08
2022-10-22T03:40:38.060Z,11.05
2022-10-22T03:43:05.871Z,11.02
2022-10-22T03:45:33.614Z,10.99
2022-10-22T03:48:04.526Z,10.99
2022-10-22T03:50:32.223Z,10.99
2022-10-22T03:52:59.982Z,10.99
2022-10-22T03:55:27.714Z,11.00
2022-10-22T03:57:55.401Z,11.01
2022-10-22T04:00:23.147Z,11.02
2022-10-22T04:02:51.379Z,11.01
2022-10-22T04:05:19.094Z,11.01
2022-10-22T04:07:46.865Z,10.99
2022-10-22T04:10:14.676Z,10.98
2022-10-22T04:12:42.382Z,10.97
2022-10-22T04:15:10.292Z,10.96
2022-10-22T04:17:38.286Z,10.94
2022-10-22T04:20:12.599Z,10.91
2022-10-22T04:22:40.231Z,10.90
2022-10-22T04:25:08.184Z,10.89
2022-10-22T04:27:39.978Z,10.86
2022-10-22T04:30:11.219Z,10.84
2022-10-22T04:32:38.849Z,10.82
2022-10-22T04:35:06.994Z,10.79
2022-10-22T04:37:34.683Z,10.77
2022-10-22T04:40:02.524Z,10.73
2022-10-22T04:42:35.005Z,10.70
2022-10-22T04:45:08.834Z,10.67
2022-10-22T04:47:36.491Z,10.63
2022-10-22T04:50:09.370Z,10.57
2022-10-22T04:52:37.015Z,10.53
2022-10-22T04:55:08.309Z,10.50
2022-10-22T04:57:36.136Z,10.46
2022-10-22T05:00:08.195Z,10.43
2022-10-22T05:02:35.901Z,10.40
2022-10-22T05:05:07.658Z,10.39
2022-10-22T05:07:35.280Z,10.38
2022-10-22T05:10:03.141Z,10.37
2022-10-22T05:12:33.393Z,10.36
2022-10-22T05:15:01.070Z,10.36
2022-10-22T05:17:28.867Z,10.35
2022-10-22T05:19:56.601Z,10.36
2022-10-22T05:22:24.333Z,10.38
2022-10-22T05:24:55.843Z,10.38
2022-10-22T05:27:23.550Z,10.40
2022-10-22T05:29:51.295Z,10.42
2022-10-22T05:32:22.015Z,10.45
2022-10-22T05:34:49.762Z,10.48
2022-10-22T05:37:17.573Z,10.53
2022-10-22T05:39:45.393Z,10.57
2022-10-22T05:42:13.313Z,10.61
2022-10-22T05:44:41.032Z,10.64
2022-10-22T05:47:11.759Z,10.68
2022-10-22T05:49:39.438Z,10.72
2022-10-22T05:52:07.130Z,10.75
2022-10-22T05:54:34.823Z,10.77
2022-10-22T05:57:02.544Z,10.79
2022-10-22T05:59:30.252Z,10.82
2022-10-22T06:01:58.070Z,10.86
2022-10-22T06:04:25.836Z,10.89
2022-10-22T06:06:55.071Z,10.92
2022-10-22T06:09:30.676Z,10.96
2022-10-22T06:11:59.287Z,10.99
2022-10-22T06:14:33.084Z,11.04
2022-10-22T06:17:01.193Z,11.07
2022-10-22T06:19:33.030Z,11.12
2022-10-22T06:22:00.861Z,11.20
2022-10-22T06:24:28.564Z,11.24
2022-10-22T06:26:56.315Z,11.25
2022-10-22T06:29:24.140Z,11.26
2022-10-22T06:31:53.602Z,11.27
2022-10-22T06:34:22.000Z,11.28
2022-10-22T06:36:52.098Z,11.30
2022-10-22T06:39:19.828Z,11.31
2022-10-22T06:41:47.617Z,11.31
2022-10-22T06:44:18.628Z,11.31
2022-10-22T06:46:52.523Z,11.33
2022-10-22T06:49:21.782Z,11.33
2022-10-22T06:51:52.654Z,11.33
2022-10-22T06:54:22.653Z,11.33
2022-10-22T06:56:51.032Z,11.35
2022-10-22T06:59:20.658Z,11.35
2022-10-22T07:01:53.289Z,11.38
2022-10-22T07:04:22.149Z,11.42
2022-10-22T07:06:49.865Z,11.50
2022-10-22T07:11:49.750Z,11.74
2022-10-22T07:14:21.767Z,11.84
2022-10-22T07:16:49.479Z,11.92
2022-10-22T07:19:17.517Z,11.99
2022-10-22T07:21:45.473Z,12.06
2022-10-22T07:24:16.501Z,12.11
2022-10-22T07:26:44.599Z,12.16
2022-10-22T07:29:12.557Z,12.20
2022-10-22T07:31:44.539Z,12.23
2022-10-22T07:34:12.906Z,12.28
2022-10-22T07:36:40.935Z,12.32
2022-10-22T07:39:10.784Z,12.38
2022-10-22T07:41:38.540Z,12.42
2022-10-22T07:44:06.458Z,12.46
2022-10-22T07:46:36.269Z,12.50
2022-10-22T07:49:04.308Z,12.52
2022-10-22T07:51:36.737Z,12.53
2022-10-22T07:54:04.616Z,12.54
2022-10-22T07:56:32.497Z,12.57
2022-10-22T07:59:03.428Z,12.58
2022-10-22T08:01:34.325Z,12.62
2022-10-22T08:04:02.323Z,12.65
2022-10-22T08:06:33.282Z,12.70
2022-10-22T08:09:01.778Z,12.77
2022-10-22T08:11:33.715Z,12.87
2022-10-22T08:14:01.502Z,12.94
2022-10-22T08:16:33.372Z,13.01
2022-10-22T08:19:01.313Z,13.09
2022-10-22T08:21:29.132Z,13.17
2022-10-22T08:23:57.273Z,13.23
2022-10-22T08:26:26.405Z,13.29
2022-10-22T08:28:54.221Z,13.35
2022-10-22T08:31:21.944Z,13.45
2022-10-22T08:33:51.309Z,13.65
2022-10-22T08:36:19.012Z,13.92
2022-10-22T08:38:47.151Z,14.22
2022-10-22T08:41:24.283Z,14.53
2022-10-22T08:44:18.228Z,14.82
2022-10-22T08:47:21.378Z,15.03
2022-10-22T08:49:59.390Z,15.39
2022-10-22T08:52:27.370Z,15.60
2022-10-22T08:54:55.575Z,15.71
2022-10-22T09:00:04.947Z,15.74
2022-10-22T09:03:04.928Z,15.72
2022-10-22T09:06:01.052Z,15.69
2022-10-22T09:08:33.001Z,15.66
2022-10-22T09:11:10.990Z,15.61
2022-10-22T09:13:45.782Z,15.57
2022-10-22T09:16:39.843Z,15.56
2022-10-22T09:19:13.723Z,15.65
2022-10-22T09:22:27.608Z,15.84
2022-10-22T09:25:17.252Z,16.18
2022-10-22T09:27:45.067Z,16.49
2022-10-22T09:30:29.970Z,16.59
2022-10-22T09:33:10.004Z,16.55
2022-10-22T09:35:50.525Z,16.37
2022-10-22T09:38:31.996Z,16.29
2022-10-22T09:41:05.577Z,16.23
2022-10-22T09:43:37.492Z,16.18
2022-10-22T09:46:19.789Z,16.14
2022-10-22T09:49:22.849Z,16.08
2022-10-22T09:52:00.257Z,15.97
2022-10-22T09:54:37.081Z,15.90
2022-10-22T09:57:21.568Z,15.84
2022-10-22T09:59:55.440Z,15.77
2022-10-22T10:02:43.974Z,15.71
2022-10-22T10:05:28.941Z,15.63
2022-10-22T10:08:17.880Z,15.61
2022-10-22T10:11:12.249Z,15.62
2022-10-22T10:14:01.833Z,15.61
2022-10-22T10:16:52.812Z,15.59
2022-10-22T10:19:32.740Z,15.59
2022-10-22T10:22:12.534Z,15.56
2022-10-22T10:24:52.094Z,15.53
2022-10-22T10:27:41.077Z,15.50
2022-10-22T10:30:18.137Z,15.44
2022-10-22T10:33:10.497Z,15.39
2022-10-22T10:36:06.794Z,15.37
2022-10-22T10:38:57.590Z,15.36
2022-10-22T10:41:50.714Z,15.36
2022-10-22T10:45:01.978Z,15.34
2022-10-22T10:48:07.228Z,15.34
2022-10-22T10:50:53.255Z,15.38
2022-10-22T10:53:38.858Z,15.41
2022-10-22T10:56:54.570Z,15.41
2022-10-22T10:59:57.194Z,15.41
2022-10-22T11:02:43.641Z,15.43
2022-10-22T11:05:17.395Z,15.44
2022-10-22T11:08:05.233Z,15.46
2022-10-22T11:11:04.884Z,15.47
2022-10-22T11:13:43.704Z,15.45
2022-10-22T11:16:27.873Z,15.46
2022-10-22T11:19:22.559Z,15.47
2022-10-22T11:22:26.462Z,15.44
2022-10-22T11:25:05.822Z,15.39
2022-10-22T11:27:52.850Z,15.38
2022-10-22T11:30:29.858Z,15.38
2022-10-22T11:33:10.155Z,15.37
2022-10-22T11:35:46.727Z,15.37
2022-10-22T11:38:30.649Z,15.37
2022-10-22T11:41:15.947Z,15.36
2022-10-22T11:44:05.733Z,15.36
2022-10-22T11:46:58.957Z,15.34
2022-10-22T11:50:02.492Z,15.30
2022-10-22T11:52:33.197Z,15.27
2022-10-22T11:55:59.715Z,15.24
2022-10-22T11:58:52.148Z,15.20
2022-10-22T12:01:47.205Z,15.19
2022-10-22T12:04:22.646Z,15.20
2022-10-22T12:07:00.236Z,15.21
2022-10-22T12:09:33.917Z,15.21
2022-10-22T12:12:10.566Z,15.20
2022-10-22T12:14:56.519Z,15.20
2022-10-22T12:17:29.723Z,15.17
2022-10-22T12:20:17.706Z,15.13
2022-10-22T12:22:50.157Z,15.09
2022-10-22T12:25:25.064Z,15.05
2022-10-22T12:27:58.985Z,15.03
2022-10-22T12:30:34.982Z,15.01
2022-10-22T12:33:22.997Z,14.99
2022-10-22T12:35:55.400Z,14.97
2022-10-22T12:38:28.876Z,14.94
2022-10-22T12:41:01.688Z,14.94
2022-10-22T12:43:34.340Z,14.93
2022-10-22T12:46:02.116Z,14.93
2022-10-22T12:49:05.861Z,14.92
2022-10-22T12:51:33.871Z,14.88
2022-10-22T12:54:22.772Z,14.85
2022-10-22T12:56:56.061Z,14.81
2022-10-22T12:59:38.479Z,14.76
2022-10-22T13:02:35.232Z,14.71
2022-10-22T13:05:30.065Z,14.66
2022-10-22T13:08:11.442Z,14.60
2022-10-22T13:10:56.223Z,14.55
2022-10-22T13:13:38.780Z,14.50
2022-10-22T13:16:37.332Z,14.46
2022-10-22T13:19:05.134Z,14.40
2022-10-22T13:21:38.941Z,14.35
2022-10-22T13:24:21.471Z,14.28
2022-10-22T13:26:58.406Z,14.20
2022-10-22T13:29:26.101Z,14.13
2022-10-22T13:31:58.249Z,14.07
2022-10-22T13:34:30.420Z,13.97
2022-10-22T13:37:00.240Z,13.90
2022-10-22T13:39:28.105Z,13.83
2022-10-22T13:41:55.767Z,13.76
2022-10-22T13:44:27.631Z,13.69
2022-10-22T13:46:59.781Z,13.64
2022-10-22T13:49:27.517Z,13.58
2022-10-22T13:51:55.181Z,13.51
2022-10-22T13:54:28.414Z,13.44
2022-10-22T13:56:56.348Z,13.36
2022-10-22T13:59:24.165Z,13.28
2022-10-22T14:01:57.204Z,13.17
2022-10-22T14:04:27.702Z,13.10
2022-10-22T14:06:57.666Z,13.03
2022-10-22T14:09:30.236Z,12.96
2022-10-22T14:11:57.966Z,12.90
2022-10-22T14:14:25.712Z,12.86
2022-10-22T14:16:58.122Z,12.77
2022-10-22T14:19:25.968Z,12.66
2022-10-22T14:21:53.753Z,12.60
2022-10-22T14:24:21.509Z,12.54
2022-10-22T14:26:49.378Z,12.47
2022-10-22T14:29:17.066Z,12.39
2022-10-22T14:31:45.071Z,12.32
2022-10-22T14:34:17.438Z,12.28
2022-10-22T14:36:45.408Z,12.23
2022-10-22T14:39:18.685Z,12.19
2022-10-22T14:41:51.474Z,12.11
2022-10-22T14:44:19.174Z,12.06
2022-10-22T14:46:46.889Z,12.02
2022-10-22T14:49:14.673Z,11.99
2022-10-22T14:51:42.434Z,11.96
2022-10-22T14:54:14.612Z,11.89
2022-10-22T14:56:42.718Z,11.82
2022-10-22T14:59:10.416Z,11.76
2022-10-22T15:01:43.075Z,11.72
2022-10-22T15:04:11.194Z,11.68
2022-10-22T15:06:39.169Z,11.67
2022-10-22T15:09:07.278Z,11.64
2022-10-22T15:11:35.425Z,11.63
2022-10-22T15:14:04.884Z,11.62
2022-10-22T15:16:32.959Z,11.61
2022-10-22T15:19:05.216Z,11.59
2022-10-22T15:21:33.234Z,11.55
2022-10-22T15:24:01.696Z,11.54
2022-10-22T15:26:29.526Z,11.53
2022-10-22T15:29:06.979Z,11.49
2022-10-22T15:31:42.705Z,11.41
2022-10-22T15:34:10.715Z,11.37
2022-10-22T15:36:38.535Z,11.31
2022-10-22T15:39:11.345Z,11.28
2022-10-22T15:41:39.178Z,11.26
2022-10-22T15:44:25.310Z,11.23
2022-10-22T15:46:56.492Z,11.15
2022-10-22T15:49:29.317Z,11.10
2022-10-22T15:51:57.477Z,11.06
2022-10-22T15:54:31.635Z,11.04
2022-10-22T15:57:04.746Z,10.99
2022-10-22T15:59:37.713Z,10.97
2022-10-22T16:02:11.561Z,10.96
2022-10-22T16:04:43.640Z,10.97
2022-10-22T16:07:11.593Z,10.96
2022-10-22T16:09:39.478Z,10.96
2022-10-22T16:12:07.512Z,10.95
2022-10-22T16:14:35.524Z,10.96
2022-10-22T16:17:03.343Z,10.97
2022-10-22T16:19:31.291Z,10.97
2022-10-22T16:22:04.286Z,10.98
2022-10-22T16:24:31.963Z,10.99
2022-10-22T16:27:04.041Z,10.98
2022-10-22T16:29:34.770Z,10.98
2022-10-22T16:32:03.371Z,10.97
2022-10-22T16:34:31.024Z,10.96
2022-10-22T16:36:58.713Z,10.95
2022-10-22T16:39:26.413Z,10.94
2022-10-22T16:41:54.231Z,10.91
2022-10-22T16:44:22.083Z,10.90
2022-10-22T16:46:49.863Z,10.88
2022-10-22T16:49:17.782Z,10.87
2022-10-22T16:51:47.334Z,10.86
2022-10-22T16:54:19.840Z,10.86
2022-10-22T16:56:47.768Z,10.85
2022-10-22T16:59:20.127Z,10.84
2022-10-22T17:01:49.880Z,10.83
2022-10-22T17:04:17.601Z,10.83
2022-10-22T17:06:45.275Z,10.82
2022-10-22T17:09:17.584Z,10.81
2022-10-22T17:11:45.601Z,10.82
2022-10-22T17:14:13.405Z,10.79
2022-10-22T17:16:41.085Z,10.78
2022-10-22T17:19:15.966Z,10.76
2022-10-22T17:21:43.859Z,10.76
2022-10-22T17:24:11.614Z,10.73
2022-10-22T17:26:39.469Z,10.72
2022-10-22T17:29:07.202Z,10.72
2022-10-22T17:31:40.351Z,10.71
2022-10-22T17:34:15.479Z,10.69
2022-10-22T17:36:48.009Z,10.68
2022-10-22T17:39:22.309Z,10.68
2022-10-22T17:41:49.986Z,10.69
2022-10-22T17:44:17.720Z,10.67
2022-10-22T17:46:45.583Z,10.67
2022-10-22T17:49:23.384Z,10.66
2022-10-22T17:51:51.158Z,10.66
2022-10-22T17:54:22.037Z,10.64
2022-10-22T17:56:49.861Z,10.63
2022-10-22T17:59:22.006Z,10.64
2022-10-22T18:01:49.912Z,10.64
2022-10-22T18:04:24.316Z,10.64
2022-10-22T18:06:52.112Z,10.65
2022-10-22T18:09:25.070Z,10.66
2022-10-22T18:11:58.348Z,10.67
2022-10-22T18:14:26.110Z,10.65
2022-10-22T18:16:58.651Z,10.64
2022-10-22T18:19:26.747Z,10.64
2022-10-22T18:21:54.877Z,10.63
2022-10-22T18:24:23.557Z,10.61
2022-10-22T18:26:54.297Z,10.60
2022-10-22T18:29:22.130Z,10.59
2022-10-22T18:31:54.596Z,10.59
2022-10-22T18:34:23.918Z,10.59
2022-10-22T18:36:53.523Z,10.57
2022-10-22T18:39:21.270Z,10.59
2022-10-22T18:41:49.633Z,10.58
2022-10-22T18:44:23.379Z,10.56
2022-10-22T18:46:51.375Z,10.54
2022-10-22T18:49:23.718Z,10.53
2022-10-22T18:51:56.709Z,10.52
2022-10-22T18:54:24.910Z,10.52
2022-10-22T18:57:03.061Z,10.51
2022-10-22T18:59:35.698Z,10.52
2022-10-22T19:02:03.599Z,10.51
2022-10-22T19:04:42.569Z,10.50
2022-10-22T19:07:15.946Z,10.52
2022-10-22T19:09:46.803Z,10.53
2022-10-22T19:12:20.020Z,10.53
2022-10-22T19:14:52.885Z,10.53
2022-10-22T19:17:23.526Z,10.51
2022-10-22T19:19:51.228Z,10.52
2022-10-22T19:22:18.977Z,10.52
2022-10-22T19:24:52.470Z,10.53
2022-10-22T19:27:21.970Z,10.52
2022-10-22T19:29:50.534Z,10.50
2022-10-22T19:32:25.240Z,10.49
2022-10-22T19:34:59.391Z,10.49
2022-10-22T19:37:27.104Z,10.48
2022-10-22T19:39:55.038Z,10.48
2022-10-22T19:42:22.794Z,10.49
2022-10-22T19:44:54.683Z,10.50
2022-10-22T19:47:22.469Z,10.49
2022-10-22T19:49:50.220Z,10.50
2022-10-22T19:52:18.992Z,10.50
2022-10-22T19:54:49.198Z,10.50
2022-10-22T19:57:22.430Z,10.52
2022-10-22T19:59:55.025Z,10.52
2022-10-22T20:02:23.182Z,10.51
2022-10-22T20:04:50.796Z,10.51
2022-10-22T20:07:18.533Z,10.52
2022-10-22T20:13:51.221Z,10.50
2022-10-22T20:16:30.075Z,10.51
2022-10-22T20:19:16.652Z,10.53
2022-10-22T20:21:50.776Z,10.54
2022-10-22T20:24:22.743Z,10.55
2022-10-22T20:26:50.404Z,10.55
2022-10-22T20:29:23.187Z,10.54
2022-10-22T20:31:50.889Z,10.55
2022-10-22T20:34:18.681Z,10.54
2022-10-22T20:36:48.131Z,10.55
2022-10-22T20:39:20.081Z,10.55
2022-10-22T20:41:54.662Z,10.55
2022-10-22T20:44:22.591Z,10.58
2022-10-22T20:46:53.232Z,10.59
2022-10-22T20:49:22.970Z,10.60
2022-10-22T20:51:50.820Z,10.61
2022-10-22T20:54:20.273Z,10.63
2022-10-22T20:56:48.147Z,10.64
2022-10-22T20:59:16.606Z,10.66
2022-10-22T21:01:50.394Z,10.67
2022-10-22T21:04:20.780Z,10.69
2022-10-22T21:06:50.395Z,10.70
2022-10-22T21:09:18.195Z,10.72
2022-10-22T21:11:48.326Z,10.74
2022-10-22T21:14:20.089Z,10.76
2022-10-22T21:16:50.178Z,10.77
2022-10-22T21:19:20.115Z,10.78
2022-10-22T21:21:47.848Z,10.80
2022-10-22T21:24:18.025Z,10.80
2022-10-22T21:26:45.966Z,10.82
2022-10-22T21:29:13.757Z,10.83
2022-10-22T21:31:41.553Z,10.83
2022-10-22T21:34:09.903Z,10.84
2022-10-22T21:36:38.156Z,10.85
2022-10-22T21:39:07.242Z,10.87
2022-10-22T21:41:37.229Z,10.87
2022-10-22T21:44:05.636Z,10.88
2022-10-22T21:46:34.428Z,10.89
2022-10-22T21:49:05.242Z,10.90
2022-10-22T21:51:35.479Z,10.91
2022-10-22T21:54:03.249Z,10.93
2022-10-22T21:56:34.269Z,10.94
2022-10-22T21:59:04.390Z,10.95
2022-10-22T22:01:32.953Z,10.97
2022-10-22T22:04:01.533Z,10.99
2022-10-22T22:06:33.666Z,11.00
2022-10-22T22:09:05.219Z,11.02
2022-10-22T22:11:33.222Z,11.05
2022-10-22T22:14:02.091Z,11.07
2022-10-22T22:16:32.758Z,11.11
2022-10-22T22:21:41.523Z,11.21
2022-10-22T22:24:12.713Z,11.25
2022-10-22T22:26:40.524Z,11.29
2022-10-22T22:29:08.195Z,11.31
2022-10-22T22:31:37.648Z,11.33
2022-10-22T22:34:08.645Z,11.36
2022-10-22T22:36:39.275Z,11.37
2022-10-22T22:39:11.106Z,11.38
2022-10-22T22:41:39.683Z,11.38
2022-10-22T22:44:07.529Z,11.40
2022-10-22T22:46:36.443Z,11.41
2022-10-22T22:49:05.015Z,11.42
2022-10-22T22:51:33.556Z,11.42
2022-10-22T22:54:02.263Z,11.42
2022-10-22T22:56:34.718Z,11.43
2022-10-22T22:59:04.454Z,11.43
2022-10-22T23:01:35.209Z,11.43
2022-10-22T23:04:16.544Z,11.43
2022-10-22T23:07:04.793Z,11.43
2022-10-22T23:09:33.831Z,11.43
2022-10-22T23:12:01.528Z,11.44
2022-10-22T23:14:30.664Z,11.44
2022-10-22T23:16:58.337Z,11.44
2022-10-22T23:19:26.074Z,11.43
2022-10-22T23:21:55.521Z,11.43
2022-10-22T23:24:26.805Z,11.42
2022-10-22T23:26:56.482Z,11.41
2022-10-22T23:29:29.561Z,11.40
2022-10-22T23:32:02.457Z,11.40
2022-10-22T23:34:32.239Z,11.40
2022-10-22T23:37:00.053Z,11.41
2022-10-22T23:39:29.899Z,11.41
2022-10-22T23:41:58.561Z,11.41
2022-10-22T23:44:28.681Z,11.41
2022-10-22T23:46:56.468Z,11.41
2022-10-22T23:49:24.193Z,11.41
2022-10-22T23:51:52.069Z,11.41
2022-10-22T23:54:20.020Z,11.42
2022-10-22T23:56:50.042Z,11.42
2022-10-22T23:59:18.291Z,11.43
